Terminal Aerodrome Forecast
Issued by NWS

Home | Current Version | Previous Version | Text Only | Print | Product List | Glossary On
Versions: 1 2 3 4 5 6 7 8 9 10 11 12 13 14 15 16 17 18 19 20 21 22 23 24
000
FTUS42 KJAX 060207 AAC
TAFCRG
TAF AMD
KCRG 060207Z 0602/0624 32010KT P6SM -SHRA BKN010 OVC050
     FM060300 VRB03KT P6SM SCT010 BKN050 OVC070
     FM060400 32011G16KT P6SM VCSH SCT010 BKN015 OVC050
     FM061000 01010KT P6SM VCSH SCT008 BKN015 OVC035
     FM061600 03012G18KT 5SM -RA BR BKN007 OVC020=

USA.gov is the U.S. government's official web portal to all federal, state and local government web resources and services.